createdAt,value
2023-04-21T00:02:28.410Z,9.53
2023-04-21T00:04:57.388Z,9.10
2023-04-21T00:07:25.444Z,9.60
2023-04-21T00:09:54.745Z,9.77
2023-04-21T00:12:22.750Z,10.00
2023-04-21T00:14:50.728Z,9.50
2023-04-21T00:17:18.661Z,9.20
2023-04-21T00:19:47.716Z,9.33
2023-04-21T00:22:15.750Z,9.43
2023-04-21T00:24:43.656Z,9.70
2023-04-21T00:27:13.308Z,9.20
2023-04-21T00:29:41.422Z,9.53
2023-04-21T00:32:10.165Z,9.60
2023-04-21T00:34:38.205Z,10.70
2023-04-21T00:37:06.091Z,10.00
2023-04-21T00:39:34.078Z,10.53
2023-04-21T00:42:02.351Z,10.20
2023-04-21T00:44:31.671Z,10.33
2023-04-21T00:46:59.635Z,10.03
2023-04-21T00:49:27.835Z,10.90
2023-04-21T00:51:56.655Z,10.70
2023-04-21T00:54:25.965Z,10.33
2023-04-21T00:56:55.008Z,9.93
2023-04-21T00:59:23.000Z,11.27
2023-04-21T01:01:52.858Z,10.77
2023-04-21T01:04:20.959Z,10.77
2023-04-21T01:06:49.442Z,10.47
2023-04-21T01:09:18.038Z,10.50
2023-04-21T01:12:02.218Z,11.97
2023-04-21T01:14:30.424Z,10.67
2023-04-21T01:17:00.114Z,11.17
2023-04-21T01:19:31.597Z,11.27
2023-04-21T01:22:02.020Z,10.80
2023-04-21T01:24:38.261Z,10.30
2023-04-21T01:27:11.235Z,10.80
2023-04-21T01:29:39.553Z,10.60
2023-04-21T01:32:09.339Z,11.23
2023-04-21T01:34:37.666Z,10.87
2023-04-21T01:37:08.684Z,11.50
2023-04-21T01:39:39.365Z,10.23
2023-04-21T01:42:07.740Z,10.77
2023-04-21T01:44:36.230Z,11.20
2023-04-21T01:47:04.387Z,11.33
2023-04-21T01:49:32.344Z,11.00
2023-04-21T01:52:00.345Z,11.50
2023-04-21T01:54:29.750Z,10.53
2023-04-21T01:56:57.898Z,10.97
2023-04-21T01:59:27.293Z,11.23
2023-04-21T02:01:55.553Z,11.43
2023-04-21T02:04:23.689Z,11.37
2023-04-21T02:06:51.734Z,10.67
2023-04-21T02:09:20.045Z,10.97
2023-04-21T02:11:49.523Z,11.80
2023-04-21T02:14:17.405Z,11.37
2023-04-21T02:16:45.438Z,11.53
2023-04-21T02:19:13.360Z,11.67
2023-04-21T02:21:41.285Z,11.50
2023-04-21T02:24:09.321Z,11.67
2023-04-21T02:26:37.209Z,11.37
2023-04-21T02:29:06.502Z,12.10
2023-04-21T02:31:40.441Z,11.80
2023-04-21T02:34:14.371Z,12.17
2023-04-21T02:36:42.311Z,12.27
2023-04-21T02:39:10.359Z,11.60
2023-04-21T02:41:38.254Z,12.20
2023-04-21T02:44:07.751Z,11.57
2023-04-21T02:46:35.697Z,11.73
2023-04-21T02:49:03.662Z,11.90
2023-04-21T02:51:31.789Z,12.20
2023-04-21T02:53:59.750Z,11.83
2023-04-21T02:56:27.666Z,11.70
2023-04-21T02:58:55.634Z,12.50
2023-04-21T03:01:24.984Z,12.43
2023-04-21T03:03:53.105Z,11.10
2023-04-21T03:06:21.228Z,12.23
2023-04-21T03:08:49.205Z,11.40
2023-04-21T03:11:17.136Z,12.27
2023-04-21T03:13:45.308Z,12.00
2023-04-21T03:16:13.419Z,11.20
2023-04-21T03:18:42.773Z,12.40
2023-04-21T03:21:10.912Z,12.10
2023-04-21T03:23:38.867Z,10.70
2023-04-21T03:26:08.370Z,11.43
2023-04-21T03:28:36.585Z,11.37
2023-04-21T03:31:04.462Z,12.03
2023-04-21T03:33:32.347Z,11.70
2023-04-21T03:36:01.627Z,11.20
2023-04-21T03:38:30.438Z,10.87
2023-04-21T03:41:01.127Z,11.87
2023-04-21T03:43:29.175Z,11.17
2023-04-21T03:45:57.201Z,11.50
2023-04-21T03:48:25.239Z,11.13
2023-04-21T03:50:53.171Z,11.00
2023-04-21T03:53:22.492Z,11.60
2023-04-21T03:55:51.553Z,10.77
2023-04-21T03:58:19.632Z,11.60
2023-04-21T04:00:47.583Z,11.53
2023-04-21T04:03:15.695Z,11.43
2023-04-21T04:05:43.861Z,11.13
2023-04-21T04:08:11.850Z,11.97
2023-04-21T04:10:41.109Z,11.47
2023-04-21T04:13:09.012Z,10.73
2023-04-21T04:15:36.908Z,11.53
2023-04-21T04:18:05.019Z,11.77
2023-04-21T04:20:32.973Z,11.67
2023-04-21T04:23:00.918Z,11.07
2023-04-21T04:25:29.071Z,11.67
2023-04-21T04:27:58.776Z,11.67
2023-04-21T04:30:28.031Z,12.20
2023-04-21T04:32:57.761Z,11.53
2023-04-21T04:35:25.985Z,11.10
2023-04-21T04:37:54.978Z,11.20
2023-04-21T04:40:22.988Z,12.37
2023-04-21T04:42:51.544Z,11.90
2023-04-21T04:45:22.198Z,11.73
2023-04-21T04:47:50.963Z,10.97
2023-04-21T04:50:18.941Z,11.77
2023-04-21T04:52:47.477Z,11.47
2023-04-21T04:55:15.521Z,11.60
2023-04-21T04:57:43.540Z,11.60
2023-04-21T05:00:14.430Z,11.70
2023-04-21T05:02:43.856Z,11.83
2023-04-21T05:05:11.931Z,11.87
2023-04-21T05:07:40.720Z,11.53
2023-04-21T05:10:09.250Z,11.43
2023-04-21T05:12:37.215Z,11.20
2023-04-21T05:15:05.752Z,11.53
2023-04-21T05:17:34.840Z,11.70
2023-04-21T05:20:05.630Z,12.37
2023-04-21T05:22:33.586Z,11.77
2023-04-21T05:25:02.733Z,12.30
2023-04-21T05:27:30.730Z,13.77
2023-04-21T05:29:58.669Z,13.20
2023-04-21T05:32:26.708Z,14.03
2023-04-21T05:34:54.685Z,13.53
2023-04-21T05:37:23.948Z,14.20
2023-04-21T05:39:52.673Z,14.60
2023-04-21T05:42:21.782Z,15.50
2023-04-21T05:44:49.760Z,15.33
2023-04-21T05:47:17.623Z,15.23
2023-04-21T05:49:50.341Z,15.60
2023-04-21T05:52:18.606Z,15.23
2023-04-21T05:54:47.862Z,16.43
2023-04-21T05:57:17.729Z,15.17
2023-04-21T05:59:45.844Z,15.43
2023-04-21T06:02:13.912Z,15.47
2023-04-21T06:04:42.103Z,15.47
2023-04-21T06:07:13.467Z,14.87
2023-04-21T06:09:42.163Z,14.70
2023-04-21T06:12:11.482Z,14.73
2023-04-21T06:14:39.404Z,14.90
2023-04-21T06:17:07.304Z,14.33
2023-04-21T06:19:39.572Z,14.70
2023-04-21T06:22:08.323Z,14.37
2023-04-21T06:24:36.173Z,14.57
2023-04-21T06:27:04.207Z,15.67
2023-04-21T06:29:33.419Z,15.13
2023-04-21T06:32:01.618Z,13.67
2023-04-21T06:34:29.656Z,14.33
2023-04-21T06:36:57.503Z,13.47
2023-04-21T06:39:25.439Z,14.40
2023-04-21T06:41:53.311Z,14.23
2023-04-21T06:44:21.423Z,14.37
2023-04-21T06:46:51.216Z,14.83
2023-04-21T06:49:19.421Z,14.37
2023-04-21T06:51:47.648Z,14.60
2023-04-21T06:54:16.210Z,13.57
2023-04-21T06:56:44.117Z,13.67
2023-04-21T06:59:12.135Z,13.93
2023-04-21T07:01:40.168Z,13.83
2023-04-21T07:04:09.527Z,14.07
2023-04-21T07:06:37.470Z,13.67
2023-04-21T07:09:05.726Z,13.63
2023-04-21T07:11:33.662Z,13.47
2023-04-21T07:14:02.330Z,13.97
2023-04-21T07:16:31.462Z,13.97
2023-04-21T07:18:59.499Z,12.60
2023-04-21T07:21:30.163Z,13.20
2023-04-21T07:23:58.089Z,14.17
2023-04-21T07:26:26.145Z,13.60
2023-04-21T07:28:55.392Z,14.10
2023-04-21T07:31:23.363Z,14.07
2023-04-21T07:33:51.428Z,13.43
2023-04-21T07:36:19.472Z,14.13
2023-04-21T07:38:48.840Z,13.73
2023-04-21T07:41:16.821Z,13.60
2023-04-21T07:43:44.761Z,13.37
2023-04-21T07:46:13.270Z,14.73
2023-04-21T07:48:41.939Z,13.83
2023-04-21T07:51:09.851Z,13.90
2023-04-21T07:53:37.782Z,14.73
2023-04-21T07:56:07.606Z,15.60
2023-04-21T07:58:35.538Z,15.47
2023-04-21T08:01:03.427Z,14.53
2023-04-21T08:03:31.552Z,13.30
2023-04-21T08:05:59.947Z,13.93
2023-04-21T08:08:29.644Z,13.93
2023-04-21T08:10:59.334Z,14.60
2023-04-21T08:13:29.840Z,13.40
2023-04-21T08:15:58.078Z,14.87
2023-04-21T08:18:26.233Z,14.20
2023-04-21T08:20:57.341Z,13.93
2023-04-21T08:23:25.584Z,13.37
2023-04-21T08:25:53.673Z,13.67
2023-04-21T08:28:21.707Z,12.93
2023-04-21T08:30:56.750Z,13.67
2023-04-21T08:34:02.857Z,13.20
2023-04-21T08:36:31.995Z,13.53
2023-04-21T08:39:00.226Z,13.17
2023-04-21T08:41:28.445Z,13.43
2023-04-21T08:43:56.515Z,13.53
2023-04-21T08:46:26.208Z,13.53
2023-04-21T08:48:55.442Z,14.10
2023-04-21T08:51:24.929Z,13.30
2023-04-21T08:53:52.989Z,13.53
2023-04-21T08:56:21.028Z,12.87
2023-04-21T08:58:49.012Z,13.67
2023-04-21T09:01:16.996Z,14.03
2023-04-21T09:03:47.042Z,13.47
2023-04-21T09:06:15.362Z,13.73
2023-04-21T09:08:44.850Z,13.43
2023-04-21T09:11:16.266Z,12.17
2023-04-21T09:13:44.768Z,13.37
2023-04-21T09:16:20.302Z,13.33
2023-04-21T09:18:50.677Z,13.40
2023-04-21T09:21:20.680Z,13.70
2023-04-21T09:23:49.919Z,13.33
2023-04-21T09:26:18.686Z,12.50
2023-04-21T09:28:48.152Z,12.93
2023-04-21T09:31:17.971Z,13.57
2023-04-21T09:36:24.431Z,13.00
2023-04-21T09:39:20.675Z,14.03
2023-04-21T09:41:46.646Z,12.67
2023-04-21T09:44:14.614Z,13.47
2023-04-21T09:46:45.223Z,14.60
2023-04-21T09:49:17.427Z,12.93
2023-04-21T09:54:28.986Z,13.60
2023-04-21T09:57:01.747Z,14.00
2023-04-21T09:59:33.700Z,13.83
2023-04-21T10:02:03.033Z,13.80
2023-04-21T10:04:34.460Z,13.63
2023-04-21T10:07:03.935Z,13.53
2023-04-21T10:09:49.297Z,13.77
2023-04-21T10:12:18.591Z,14.03
2023-04-21T10:14:46.568Z,13.90
2023-04-21T10:17:17.806Z,14.83
2023-04-21T10:19:52.311Z,14.73
2023-04-21T10:22:30.461Z,14.67
2023-04-21T10:25:00.303Z,14.97
2023-04-21T10:27:36.097Z,15.30
2023-04-21T10:30:20.387Z,15.17
2023-04-21T10:32:48.423Z,16.60
2023-04-21T10:35:24.033Z,16.03
2023-04-21T10:37:52.980Z,15.10
2023-04-21T10:40:44.355Z,15.33
2023-04-21T10:43:49.268Z,15.57
2023-04-21T10:46:33.995Z,14.63
2023-04-21T10:49:07.348Z,14.80
2023-04-21T10:52:06.239Z,15.77
2023-04-21T10:54:41.924Z,14.97
2023-04-21T10:57:12.468Z,15.00
2023-04-21T10:59:41.034Z,15.60
2023-04-21T11:02:09.450Z,15.77
2023-04-21T11:04:40.215Z,15.23
2023-04-21T11:07:12.259Z,15.13
2023-04-21T11:09:42.998Z,15.03
2023-04-21T11:12:13.317Z,15.30
2023-04-21T11:14:42.540Z,14.43
2023-04-21T11:17:14.148Z,14.77
2023-04-21T11:19:42.462Z,14.87
2023-04-21T11:22:11.718Z,14.17
2023-04-21T11:24:44.912Z,14.47
2023-04-21T11:27:14.495Z,14.80
2023-04-21T11:29:42.733Z,14.97
2023-04-21T11:32:10.911Z,15.57
2023-04-21T11:34:39.359Z,14.87
2023-04-21T11:37:08.822Z,14.93
2023-04-21T11:39:42.881Z,14.90
2023-04-21T11:42:11.286Z,14.53
2023-04-21T11:44:40.982Z,14.67
2023-04-21T11:47:15.850Z,14.67
2023-04-21T11:49:48.490Z,15.90
2023-04-21T11:52:24.135Z,15.03
2023-04-21T11:54:56.752Z,14.67
2023-04-21T11:57:25.633Z,15.37
2023-04-21T11:59:53.946Z,14.40
2023-04-21T12:02:26.659Z,15.47
2023-04-21T12:05:03.574Z,16.00
2023-04-21T12:07:33.226Z,15.67
2023-04-21T12:10:03.700Z,15.67
2023-04-21T12:12:32.984Z,15.27
2023-04-21T12:15:04.550Z,15.93
2023-04-21T12:17:38.394Z,16.50
2023-04-21T12:20:07.432Z,15.10
2023-04-21T12:22:35.350Z,15.90
2023-04-21T12:25:07.038Z,14.40
2023-04-21T12:27:35.177Z,15.00
2023-04-21T12:30:03.994Z,15.20
2023-04-21T12:32:32.092Z,16.20
2023-04-21T12:35:00.629Z,14.87
2023-04-21T12:37:28.558Z,14.67
2023-04-21T12:39:57.315Z,14.20
2023-04-21T12:42:26.732Z,15.43
2023-04-21T12:44:56.766Z,14.60
2023-04-21T12:47:24.719Z,14.90
2023-04-21T12:49:52.681Z,14.33
2023-04-21T12:52:20.734Z,14.63
2023-04-21T12:54:48.703Z,14.80
2023-04-21T12:57:16.778Z,14.70
2023-04-21T12:59:46.607Z,14.63
2023-04-21T13:02:14.755Z,15.20
2023-04-21T13:04:43.153Z,15.27
2023-04-21T13:07:11.173Z,14.57
2023-04-21T13:09:39.539Z,15.13
2023-04-21T13:12:07.573Z,14.27
2023-04-21T13:14:35.525Z,15.10
2023-04-21T13:17:05.383Z,14.53
2023-04-21T13:19:33.579Z,14.83
2023-04-21T13:22:01.801Z,14.73
2023-04-21T13:24:29.714Z,14.60
2023-04-21T13:26:58.302Z,14.87
2023-04-21T13:29:29.379Z,14.63
2023-04-21T13:31:57.563Z,13.93
2023-04-21T13:34:26.988Z,15.27
2023-04-21T13:36:55.109Z,14.90
2023-04-21T13:39:23.084Z,14.33
2023-04-21T13:41:53.552Z,14.67
2023-04-21T13:44:22.317Z,14.27
2023-04-21T13:46:52.360Z,13.17
2023-04-21T13:49:20.781Z,12.93
2023-04-21T13:51:50.084Z,13.40
2023-04-21T13:54:17.993Z,13.57
2023-04-21T13:56:45.903Z,13.33
2023-04-21T13:59:14.858Z,13.13
2023-04-21T14:01:42.989Z,12.93
2023-04-21T14:04:11.259Z,13.40
2023-04-21T14:06:39.361Z,13.23
2023-04-21T14:09:09.629Z,14.50
2023-04-21T14:11:37.561Z,12.97
2023-04-21T14:14:09.841Z,13.73
2023-04-21T14:16:38.462Z,13.27
2023-04-21T14:19:07.024Z,13.83
2023-04-21T14:21:34.965Z,13.13
2023-04-21T14:24:03.168Z,13.83
2023-04-21T14:26:32.659Z,13.00
2023-04-21T14:29:01.529Z,12.80
2023-04-21T14:31:29.764Z,12.50
2023-04-21T14:33:57.707Z,12.50
2023-04-21T14:36:25.723Z,13.13
2023-04-21T14:38:53.662Z,13.00
2023-04-21T14:41:21.589Z,13.67
2023-04-21T14:43:53.798Z,13.87
2023-04-21T14:46:21.989Z,13.07
2023-04-21T14:48:50.085Z,13.33
2023-04-21T14:51:18.772Z,13.20
2023-04-21T14:53:47.035Z,13.07
2023-04-21T14:56:16.000Z,13.03
2023-04-21T14:58:43.960Z,13.30
2023-04-21T15:01:14.097Z,13.27
2023-04-21T15:03:42.797Z,13.33
2023-04-21T15:06:11.023Z,13.43
2023-04-21T15:08:40.064Z,12.63
2023-04-21T15:11:08.283Z,13.57
2023-04-21T15:13:36.376Z,13.07
2023-04-21T15:16:04.742Z,13.43
2023-04-21T15:18:34.107Z,13.53
2023-04-21T15:21:02.524Z,13.13
2023-04-21T15:23:30.517Z,13.20
2023-04-21T15:25:58.819Z,12.67
2023-04-21T15:28:27.121Z,12.47
2023-04-21T15:30:55.216Z,12.80
2023-04-21T15:33:23.236Z,13.17
2023-04-21T15:35:52.521Z,12.47
2023-04-21T15:38:21.176Z,12.40
2023-04-21T15:41:00.115Z,12.90
2023-04-21T15:43:28.999Z,13.30
2023-04-21T15:45:57.150Z,12.53
2023-04-21T15:48:25.340Z,12.70
2023-04-21T15:50:54.712Z,13.67
2023-04-21T15:53:22.768Z,13.50
2023-04-21T15:55:51.789Z,13.20
2023-04-21T15:58:22.059Z,13.07
2023-04-21T16:00:49.979Z,13.00
2023-04-21T16:03:18.200Z,12.83
2023-04-21T16:05:46.379Z,12.60
2023-04-21T16:08:15.832Z,12.43
2023-04-21T16:10:43.791Z,13.13
2023-04-21T16:13:11.742Z,13.37
2023-04-21T16:15:39.744Z,13.07
2023-04-21T16:18:08.424Z,14.00
2023-04-21T16:20:37.105Z,12.97
2023-04-21T16:23:05.685Z,13.03
2023-04-21T16:25:35.282Z,13.37
2023-04-21T16:28:03.417Z,13.13
2023-04-21T16:30:31.361Z,13.17
2023-04-21T16:32:59.316Z,13.27
2023-04-21T16:35:27.869Z,13.73
2023-04-21T16:37:55.978Z,13.67
2023-04-21T16:40:24.511Z,13.80
2023-04-21T16:42:53.975Z,13.83
2023-04-21T16:45:22.129Z,14.00
2023-04-21T16:47:50.245Z,13.87
2023-04-21T16:50:18.221Z,13.80
2023-04-21T16:52:46.120Z,14.10
2023-04-21T16:55:14.165Z,13.17
2023-04-21T16:57:42.644Z,12.97
2023-04-21T17:00:12.937Z,13.73
2023-04-21T17:02:41.052Z,13.27
2023-04-21T17:05:10.004Z,13.87
2023-04-21T17:07:39.411Z,13.50
2023-04-21T17:10:08.331Z,13.73
2023-04-21T17:12:36.245Z,14.17
2023-04-21T17:15:05.016Z,13.53
2023-04-21T17:17:41.627Z,14.10
2023-04-21T17:20:11.642Z,13.00
2023-04-21T17:22:39.789Z,13.60
2023-04-21T17:25:08.642Z,13.00
2023-04-21T17:27:38.068Z,14.23
2023-04-21T17:30:07.763Z,13.87
2023-04-21T17:32:37.269Z,12.87
2023-04-21T17:35:05.929Z,13.80
2023-04-21T17:37:35.172Z,14.07
2023-04-21T17:40:03.784Z,13.43
2023-04-21T17:42:31.716Z,14.23
2023-04-21T17:44:59.616Z,13.93
2023-04-21T17:47:27.673Z,14.47
2023-04-21T17:49:57.028Z,13.30
2023-04-21T17:52:24.992Z,13.93
2023-04-21T17:54:52.959Z,14.07
2023-04-21T17:57:20.807Z,14.50
2023-04-21T17:59:48.805Z,14.27
2023-04-21T18:02:16.876Z,14.43
2023-04-21T18:04:45.283Z,13.60
2023-04-21T18:07:15.002Z,15.00
2023-04-21T18:09:43.456Z,15.20
2023-04-21T18:12:11.418Z,15.60
2023-04-21T18:14:39.699Z,15.00
2023-04-21T18:17:07.758Z,15.20
2023-04-21T18:19:35.800Z,15.63
2023-04-21T18:22:03.973Z,16.33
2023-04-21T18:24:33.510Z,15.07
2023-04-21T18:27:02.031Z,14.70
2023-04-21T18:29:29.964Z,14.90
2023-04-21T18:31:57.957Z,15.43
2023-04-21T18:34:26.058Z,14.03
2023-04-21T18:36:53.942Z,15.40
2023-04-21T18:39:21.888Z,14.50
2023-04-21T18:41:52.033Z,14.97
2023-04-21T18:44:20.092Z,16.80
2023-04-21T18:46:48.344Z,14.07
2023-04-21T18:49:16.379Z,15.40
2023-04-21T18:51:45.246Z,14.73
2023-04-21T18:54:13.597Z,13.93
2023-04-21T18:56:41.595Z,12.47
2023-04-21T18:59:10.972Z,13.33
2023-04-21T19:01:40.564Z,12.30
2023-04-21T19:04:10.557Z,8.90
2023-04-21T19:06:38.960Z,7.80
2023-04-21T19:09:06.895Z,6.70
2023-04-21T19:11:34.966Z,6.00
2023-04-21T19:14:03.094Z,5.73
2023-04-21T19:16:33.804Z,5.97
2023-04-21T19:19:02.292Z,5.53
2023-04-21T19:21:30.428Z,4.50
2023-04-21T19:23:58.373Z,3.87
2023-04-21T19:26:26.398Z,3.90
2023-04-21T19:28:55.091Z,3.60
2023-04-21T19:31:24.438Z,4.00
2023-04-21T19:33:53.771Z,3.93
2023-04-21T19:36:21.833Z,4.00
2023-04-21T19:38:49.835Z,4.70
2023-04-21T19:41:17.765Z,4.53
2023-04-21T19:43:45.676Z,5.47
2023-04-21T19:46:13.806Z,4.97
2023-04-21T19:48:42.816Z,5.07
2023-04-21T19:51:12.180Z,4.87
2023-04-21T19:53:40.181Z,5.23
2023-04-21T19:56:08.132Z,5.33
2023-04-21T19:58:40.738Z,5.70
2023-04-21T20:01:09.153Z,5.23
2023-04-21T20:03:37.496Z,6.03
2023-04-21T20:06:06.567Z,5.93
2023-04-21T20:08:36.617Z,5.67
2023-04-21T20:11:04.472Z,6.37
2023-04-21T20:13:32.380Z,6.47
2023-04-21T20:16:00.558Z,6.67
2023-04-21T20:18:29.082Z,5.47
2023-04-21T20:20:57.088Z,4.40
2023-04-21T20:23:25.123Z,3.70
2023-04-21T20:25:54.418Z,3.03
2023-04-21T20:28:22.306Z,2.90
2023-04-21T20:30:50.372Z,2.70
2023-04-21T20:33:18.279Z,2.70
2023-04-21T20:35:46.341Z,2.40
2023-04-21T20:38:14.325Z,2.20
2023-04-21T20:40:42.326Z,2.37
2023-04-21T20:43:12.423Z,2.33
2023-04-21T20:45:41.290Z,2.30
2023-04-21T20:48:09.417Z,2.60
2023-04-21T20:50:37.546Z,2.50
2023-04-21T20:53:07.413Z,2.60
2023-04-21T20:55:35.449Z,2.80
2023-04-21T20:58:03.460Z,2.57
2023-04-21T21:00:34.340Z,2.27
2023-04-21T21:03:03.845Z,2.43
2023-04-21T21:05:34.001Z,2.33
2023-04-21T21:08:02.095Z,2.70
2023-04-21T21:10:30.056Z,2.77
2023-04-21T21:12:59.585Z,2.93
2023-04-21T21:15:27.922Z,3.33
2023-04-21T21:17:57.450Z,2.93
2023-04-21T21:20:25.466Z,3.33
2023-04-21T21:22:53.447Z,2.70
2023-04-21T21:25:21.563Z,2.70
2023-04-21T21:27:49.647Z,2.80
2023-04-21T21:30:17.634Z,2.67
2023-04-21T21:32:45.660Z,2.40
2023-04-21T21:35:15.001Z,2.57
2023-04-21T21:37:42.908Z,2.30
2023-04-21T21:40:11.852Z,2.40
2023-04-21T21:42:39.891Z,2.37
2023-04-21T21:45:08.891Z,2.70
2023-04-21T21:47:40.914Z,2.80
2023-04-21T21:50:12.306Z,2.73
2023-04-21T21:52:41.618Z,2.93
2023-04-21T21:55:10.456Z,3.10
2023-04-21T21:57:38.567Z,3.17
2023-04-21T22:00:08.703Z,3.40
2023-04-21T22:02:37.008Z,3.40
2023-04-21T22:05:06.210Z,3.80
2023-04-21T22:07:35.403Z,3.30
2023-04-21T22:10:05.042Z,3.63
2023-04-21T22:12:33.372Z,3.90
2023-04-21T22:15:01.341Z,3.33
2023-04-21T22:17:29.615Z,3.90
2023-04-21T22:19:57.793Z,4.13
2023-04-21T22:22:25.819Z,3.60
2023-04-21T22:24:53.758Z,3.97
2023-04-21T22:27:23.072Z,3.93
2023-04-21T22:29:51.424Z,4.40
2023-04-21T22:32:19.473Z,4.00
2023-04-21T22:34:47.384Z,3.40
2023-04-21T22:37:15.771Z,4.33
2023-04-21T22:39:43.710Z,3.57
2023-04-21T22:42:11.686Z,3.97
2023-04-21T22:44:41.338Z,4.03
2023-04-21T22:47:10.591Z,3.97
2023-04-21T22:49:38.866Z,3.80
2023-04-21T22:52:07.311Z,4.47
2023-04-21T22:54:35.343Z,4.37
2023-04-21T22:57:03.526Z,3.87
2023-04-21T22:59:31.416Z,4.23
2023-04-21T23:02:00.711Z,4.13
2023-04-21T23:04:28.696Z,4.37
2023-04-21T23:06:56.645Z,3.70
2023-04-21T23:09:24.672Z,3.87
2023-04-21T23:11:52.696Z,4.20
2023-04-21T23:14:20.614Z,4.13
2023-04-21T23:16:48.552Z,3.30
2023-04-21T23:19:17.863Z,3.93
2023-04-21T23:21:46.488Z,3.93
2023-04-21T23:24:14.544Z,3.63
2023-04-21T23:26:42.538Z,4.63
2023-04-21T23:29:10.472Z,3.60
2023-04-21T23:31:38.805Z,3.87
2023-04-21T23:34:06.907Z,4.23
2023-04-21T23:36:36.497Z,4.27
2023-04-21T23:39:04.454Z,4.07
2023-04-21T23:41:32.438Z,4.37
2023-04-21T23:44:00.420Z,4.10
2023-04-21T23:46:28.384Z,3.97
2023-04-21T23:48:56.363Z,4.03
2023-04-21T23:51:24.359Z,3.70
2023-04-21T23:53:53.748Z,4.70
2023-04-21T23:56:21.996Z,4.10
2023-04-21T23:58:49.888Z,4.23
